Aspinwall, Iowa
Current Conditions -  °F | °C
As of 7:35 PM on Friday 19 Dec 2014 (Local Time) from KDNS Reporting Station
Overcast Overcast  
Wind Chill: 23°   Ceiling: 900
Heat Index: 30°   Visibility: 9mi
Dew Point: 30°   Wind: 8mph
Humidity: 100%   Direction: 190°S
Pressure: 30.13"   Gusts: NA
Location:  41.91°N, 95.14°W
Report Text: KDNS 200135Z AUTO 19007KT 9SM OVC009 M01/M01 A3013 RMK AO2
Loading
Personal Weather Stations






























Interactive Weather Map New forecast layout! Learn more

10-Day Weather Forecast

Advertisements
Track Severe Weather on mobile